sensor_id;sensor_type;location;lat;lon;timestamp;P1;durP1;ratioP1;P2;durP2;ratioP2
23531;SDS011;11943;52.270;20.978;2023-03-13T07:03:12;28.73;;;16.88;;
23531;SDS011;11943;52.270;20.978;2023-03-13T07:05:38;30.92;;;16.73;;
23531;SDS011;11943;52.270;20.978;2023-03-13T07:08:04;28.40;;;16.00;;
23531;SDS011;11943;52.270;20.978;2023-03-13T07:10:30;28.60;;;16.52;;
23531;SDS011;11943;52.270;20.978;2023-03-13T07:12:59;28.88;;;16.83;;
23531;SDS011;11943;52.270;20.978;2023-03-13T07:15:27;32.03;;;15.50;;
23531;SDS011;11943;52.270;20.978;2023-03-13T07:17:55;23.88;;;15.43;;
23531;SDS011;11943;52.270;20.978;2023-03-13T07:20:22;25.98;;;16.40;;
23531;SDS011;11943;52.270;20.978;2023-03-13T07:22:51;27.27;;;15.00;;
23531;SDS011;11943;52.270;20.978;2023-03-13T07:25:17;30.45;;;15.20;;
23531;SDS011;11943;52.270;20.978;2023-03-13T07:27:43;23.83;;;14.48;;
23531;SDS011;11943;52.270;20.978;2023-03-13T07:30:09;23.15;;;14.73;;
23531;SDS011;11943;52.270;20.978;2023-03-13T07:32:35;23.20;;;13.82;;
23531;SDS011;11943;52.270;20.978;2023-03-13T07:35:00;26.45;;;15.00;;
23531;SDS011;11943;52.270;20.978;2023-03-13T07:37:28;24.65;;;14.07;;
23531;SDS011;11943;52.270;20.978;2023-03-13T07:39:53;23.05;;;14.68;;
23531;SDS011;11943;52.270;20.978;2023-03-13T07:42:19;25.50;;;14.23;;
23531;SDS011;11943;52.270;20.978;2023-03-13T07:44:45;25.88;;;14.85;;
23531;SDS011;11943;52.270;20.978;2023-03-13T07:47:11;23.80;;;13.13;;
23531;SDS011;11943;52.270;20.978;2023-03-13T07:49:37;19.23;;;13.15;;
23531;SDS011;11943;52.270;20.978;2023-03-13T07:52:06;24.23;;;13.90;;
23531;SDS011;11943;52.270;20.978;2023-03-13T07:54:31;20.35;;;13.00;;
23531;SDS011;11943;52.270;20.978;2023-03-13T07:56:57;20.75;;;12.55;;
23531;SDS011;11943;52.270;20.978;2023-03-13T07:59:23;20.67;;;12.98;;
23531;SDS011;11943;52.270;20.978;2023-03-13T08:01:48;19.65;;;12.38;;
23531;SDS011;11943;52.270;20.978;2023-03-13T08:04:14;21.40;;;12.32;;
23531;SDS011;11943;52.270;20.978;2023-03-13T08:06:40;20.55;;;12.52;;
23531;SDS011;11943;52.270;20.978;2023-03-13T08:09:06;25.98;;;12.23;;
23531;SDS011;11943;52.270;20.978;2023-03-13T08:11:32;22.13;;;12.15;;
23531;SDS011;11943;52.270;20.978;2023-03-13T08:13:58;19.98;;;12.48;;
23531;SDS011;11943;52.270;20.978;2023-03-13T08:16:25;22.38;;;11.18;;
23531;SDS011;11943;52.270;20.978;2023-03-13T08:18:54;17.60;;;10.95;;
23531;SDS011;11943;52.270;20.978;2023-03-13T08:21:23;21.35;;;11.80;;
23531;SDS011;11943;52.270;20.978;2023-03-13T08:23:57;20.15;;;11.43;;
23531;SDS011;11943;52.270;20.978;2023-03-13T08:26:26;19.35;;;11.82;;
23531;SDS011;11943;52.270;20.978;2023-03-13T08:28:54;16.65;;;11.13;;
23531;SDS011;11943;52.270;20.978;2023-03-13T08:31:22;16.50;;;11.48;;
23531;SDS011;11943;52.270;20.978;2023-03-13T08:33:49;17.67;;;11.15;;
23531;SDS011;11943;52.270;20.978;2023-03-13T08:36:17;20.33;;;11.52;;
23531;SDS011;11943;52.270;20.978;2023-03-13T08:38:43;18.50;;;10.70;;
23531;SDS011;11943;52.270;20.978;2023-03-13T08:41:10;22.58;;;12.02;;
23531;SDS011;11943;52.270;20.978;2023-03-13T08:46:02;16.67;;;10.93;;
23531;SDS011;11943;52.270;20.978;2023-03-13T08:48:28;17.83;;;11.38;;
23531;SDS011;11943;52.270;20.978;2023-03-13T08:51:01;22.23;;;11.70;;
23531;SDS011;11943;52.270;20.978;2023-03-13T08:53:29;17.35;;;11.68;;
23531;SDS011;11943;52.270;20.978;2023-03-13T08:55:55;17.52;;;11.73;;
23531;SDS011;11943;52.270;20.978;2023-03-13T08:58:21;21.75;;;12.43;;
23531;SDS011;11943;52.270;20.978;2023-03-13T09:00:46;19.13;;;12.40;;
23531;SDS011;11943;52.270;20.978;2023-03-13T09:03:12;19.85;;;11.48;;
23531;SDS011;11943;52.270;20.978;2023-03-13T09:05:37;15.13;;;10.55;;
23531;SDS011;11943;52.270;20.978;2023-03-13T09:08:03;19.15;;;10.82;;
23531;SDS011;11943;52.270;20.978;2023-03-13T09:10:29;17.38;;;10.40;;
23531;SDS011;11943;52.270;20.978;2023-03-13T09:12:58;18.38;;;10.88;;
23531;SDS011;11943;52.270;20.978;2023-03-13T09:15:23;15.93;;;9.95;;
23531;SDS011;11943;52.270;20.978;2023-03-13T09:17:49;18.38;;;10.68;;
23531;SDS011;11943;52.270;20.978;2023-03-13T09:20:15;17.08;;;11.02;;
23531;SDS011;11943;52.270;20.978;2023-03-13T09:22:43;18.48;;;10.88;;
23531;SDS011;11943;52.270;20.978;2023-03-13T09:25:10;18.95;;;10.60;;
23531;SDS011;11943;52.270;20.978;2023-03-13T09:27:36;14.73;;;9.77;;
23531;SDS011;11943;52.270;20.978;2023-03-13T09:30:02;17.05;;;9.82;;
23531;SDS011;11943;52.270;20.978;2023-03-13T09:32:28;18.13;;;9.85;;
23531;SDS011;11943;52.270;20.978;2023-03-13T09:34:54;22.67;;;10.40;;
23531;SDS011;11943;52.270;20.978;2023-03-13T09:37:20;19.02;;;9.60;;
23531;SDS011;11943;52.270;20.978;2023-03-13T09:39:47;18.88;;;9.45;;
23531;SDS011;11943;52.270;20.978;2023-03-13T09:42:14;19.50;;;9.68;;
23531;SDS011;11943;52.270;20.978;2023-03-13T09:45:02;12.93;;;8.57;;
23531;SDS011;11943;52.270;20.978;2023-03-13T09:47:40;17.33;;;7.78;;
23531;SDS011;11943;52.270;20.978;2023-03-13T09:52:43;14.68;;;7.30;;
23531;SDS011;11943;52.270;20.978;2023-03-13T09:55:12;24.20;;;7.78;;
23531;SDS011;11943;52.270;20.978;2023-03-13T10:00:12;14.38;;;7.20;;
23531;SDS011;11943;52.270;20.978;2023-03-13T10:02:45;15.48;;;6.38;;
23531;SDS011;11943;52.270;20.978;2023-03-13T10:05:21;18.83;;;7.32;;
23531;SDS011;11943;52.270;20.978;2023-03-13T10:08:00;15.18;;;7.07;;
23531;SDS011;11943;52.270;20.978;2023-03-13T10:15:55;16.20;;;6.63;;
23531;SDS011;11943;52.270;20.978;2023-03-13T10:18:25;17.67;;;6.20;;
23531;SDS011;11943;52.270;20.978;2023-03-13T10:20:56;10.98;;;5.55;;
23531;SDS011;11943;52.270;20.978;2023-03-13T10:23:42;13.93;;;6.53;;
23531;SDS011;11943;52.270;20.978;2023-03-13T10:26:24;13.05;;;6.10;;
23531;SDS011;11943;52.270;20.978;2023-03-13T10:29:01;18.10;;;6.32;;
23531;SDS011;11943;52.270;20.978;2023-03-13T10:31:44;16.38;;;6.70;;
23531;SDS011;11943;52.270;20.978;2023-03-13T10:34:19;14.02;;;5.45;;
23531;SDS011;11943;52.270;20.978;2023-03-13T10:36:46;14.98;;;6.50;;
23531;SDS011;11943;52.270;20.978;2023-03-13T10:39:14;18.98;;;6.50;;
23531;SDS011;11943;52.270;20.978;2023-03-13T10:41:42;12.65;;;5.65;;
23531;SDS011;11943;52.270;20.978;2023-03-13T10:44:18;16.83;;;6.15;;
23531;SDS011;11943;52.270;20.978;2023-03-13T10:46:47;16.45;;;6.38;;
23531;SDS011;11943;52.270;20.978;2023-03-13T10:49:14;13.45;;;5.95;;
23531;SDS011;11943;52.270;20.978;2023-03-13T10:51:46;22.25;;;6.03;;
23531;SDS011;11943;52.270;20.978;2023-03-13T10:54:35;16.45;;;5.80;;
23531;SDS011;11943;52.270;20.978;2023-03-13T10:59:53;22.17;;;6.07;;
23531;SDS011;11943;52.270;20.978;2023-03-13T11:02:40;14.20;;;5.85;;
23531;SDS011;11943;52.270;20.978;2023-03-13T11:07:50;13.90;;;5.53;;
23531;SDS011;11943;52.270;20.978;2023-03-13T11:12:48;14.82;;;5.57;;
23531;SDS011;11943;52.270;20.978;2023-03-13T11:21:39;13.10;;;4.78;;
23531;SDS011;11943;52.270;20.978;2023-03-13T11:24:24;16.05;;;5.07;;
23531;SDS011;11943;52.270;20.978;2023-03-13T11:30:07;16.73;;;6.00;;
23531;SDS011;11943;52.270;20.978;2023-03-13T11:32:42;16.15;;;5.57;;
23531;SDS011;11943;52.270;20.978;2023-03-13T11:37:48;14.73;;;5.47;;
23531;SDS011;11943;52.270;20.978;2023-03-13T11:40:19;13.77;;;5.75;;
23531;SDS011;11943;52.270;20.978;2023-03-13T11:43:04;15.45;;;5.30;;
23531;SDS011;11943;52.270;20.978;2023-03-13T11:48:37;12.60;;;4.95;;
23531;SDS011;11943;52.270;20.978;2023-03-13T11:51:08;14.38;;;5.40;;
23531;SDS011;11943;52.270;20.978;2023-03-13T11:53:57;15.75;;;5.07;;
23531;SDS011;11943;52.270;20.978;2023-03-13T11:59:27;18.70;;;6.32;;
23531;SDS011;11943;52.270;20.978;2023-03-13T12:02:27;15.70;;;5.70;;
23531;SDS011;11943;52.270;20.978;2023-03-13T12:05:00;17.95;;;5.18;;
23531;SDS011;11943;52.270;20.978;2023-03-13T12:10:33;9.95;;;4.50;;
23531;SDS011;11943;52.270;20.978;2023-03-13T12:13:18;17.08;;;5.55;;
23531;SDS011;11943;52.270;20.978;2023-03-13T12:15:56;13.57;;;4.85;;
23531;SDS011;11943;52.270;20.978;2023-03-13T12:26:46;17.05;;;5.60;;
23531;SDS011;11943;52.270;20.978;2023-03-13T12:31:48;16.45;;;5.28;;
23531;SDS011;11943;52.270;20.978;2023-03-13T12:34:20;18.83;;;5.70;;
23531;SDS011;11943;52.270;20.978;2023-03-13T12:44:59;16.48;;;5.05;;
23531;SDS011;11943;52.270;20.978;2023-03-13T12:47:32;17.30;;;5.20;;
23531;SDS011;11943;52.270;20.978;2023-03-13T12:52:56;17.55;;;5.00;;
23531;SDS011;11943;52.270;20.978;2023-03-13T12:58:28;15.23;;;5.22;;
23531;SDS011;11943;52.270;20.978;2023-03-13T13:01:27;17.45;;;5.97;;
23531;SDS011;11943;52.270;20.978;2023-03-13T13:04:05;22.02;;;6.82;;
23531;SDS011;11943;52.270;20.978;2023-03-13T13:06:49;23.70;;;5.70;;
23531;SDS011;11943;52.270;20.978;2023-03-13T13:09:20;17.10;;;5.93;;
23531;SDS011;11943;52.270;20.978;2023-03-13T13:11:51;22.08;;;6.43;;
23531;SDS011;11943;52.270;20.978;2023-03-13T13:17:00;17.70;;;5.60;;
23531;SDS011;11943;52.270;20.978;2023-03-13T13:30:02;19.88;;;6.28;;
23531;SDS011;11943;52.270;20.978;2023-03-13T13:32:49;17.88;;;5.65;;
23531;SDS011;11943;52.270;20.978;2023-03-13T13:35:23;19.55;;;5.85;;
23531;SDS011;11943;52.270;20.978;2023-03-13T13:37:52;17.02;;;6.22;;
23531;SDS011;11943;52.270;20.978;2023-03-13T13:40:37;18.02;;;6.50;;
23531;SDS011;11943;52.270;20.978;2023-03-13T13:43:03;18.27;;;6.45;;
23531;SDS011;11943;52.270;20.978;2023-03-13T13:48:13;17.83;;;6.13;;
23531;SDS011;11943;52.270;20.978;2023-03-13T13:50:56;18.13;;;6.20;;
23531;SDS011;11943;52.270;20.978;2023-03-13T13:54:51;20.67;;;6.53;;
23531;SDS011;11943;52.270;20.978;2023-03-13T13:59:51;20.73;;;6.10;;
23531;SDS011;11943;52.270;20.978;2023-03-13T14:02:24;17.92;;;6.38;;
23531;SDS011;11943;52.270;20.978;2023-03-13T14:05:01;27.15;;;6.65;;
23531;SDS011;11943;52.270;20.978;2023-03-13T14:12:45;13.52;;;4.75;;
23531;SDS011;11943;52.270;20.978;2023-03-13T14:17:51;19.10;;;5.10;;
23531;SDS011;11943;52.270;20.978;2023-03-13T14:22:53;14.80;;;5.38;;
23531;SDS011;11943;52.270;20.978;2023-03-13T14:25:46;11.20;;;4.40;;
23531;SDS011;11943;52.270;20.978;2023-03-13T14:28:17;14.98;;;5.07;;
23531;SDS011;11943;52.270;20.978;2023-03-13T14:30:45;16.33;;;4.50;;
23531;SDS011;11943;52.270;20.978;2023-03-13T14:33:12;17.60;;;5.80;;
23531;SDS011;11943;52.270;20.978;2023-03-13T14:35:40;15.10;;;4.72;;
23531;SDS011;11943;52.270;20.978;2023-03-13T14:38:06;15.80;;;4.32;;
23531;SDS011;11943;52.270;20.978;2023-03-13T14:40:39;21.00;;;5.20;;
23531;SDS011;11943;52.270;20.978;2023-03-13T14:43:05;12.77;;;5.35;;
23531;SDS011;11943;52.270;20.978;2023-03-13T14:45:44;19.65;;;5.40;;
23531;SDS011;11943;52.270;20.978;2023-03-13T14:50:52;13.68;;;5.40;;
23531;SDS011;11943;52.270;20.978;2023-03-13T14:53:24;18.48;;;5.40;;
23531;SDS011;11943;52.270;20.978;2023-03-13T14:56:07;14.43;;;5.22;;
23531;SDS011;11943;52.270;20.978;2023-03-13T14:58:43;21.52;;;6.53;;
23531;SDS011;11943;52.270;20.978;2023-03-13T15:01:11;18.00;;;5.60;;
23531;SDS011;11943;52.270;20.978;2023-03-13T15:03:48;16.83;;;5.30;;
23531;SDS011;11943;52.270;20.978;2023-03-13T15:06:17;14.07;;;5.35;;
23531;SDS011;11943;52.270;20.978;2023-03-13T15:08:45;13.70;;;5.00;;
23531;SDS011;11943;52.270;20.978;2023-03-13T15:13:56;23.00;;;5.82;;
23531;SDS011;11943;52.270;20.978;2023-03-13T15:16:22;20.08;;;4.85;;
23531;SDS011;11943;52.270;20.978;2023-03-13T15:18:49;15.15;;;5.78;;
23531;SDS011;11943;52.270;20.978;2023-03-13T15:23:50;12.73;;;3.97;;
23531;SDS011;11943;52.270;20.978;2023-03-13T15:26:21;11.18;;;3.90;;
23531;SDS011;11943;52.270;20.978;2023-03-13T15:28:48;11.45;;;3.88;;
23531;SDS011;11943;52.270;20.978;2023-03-13T15:31:13;12.77;;;3.92;;
23531;SDS011;11943;52.270;20.978;2023-03-13T15:33:39;14.55;;;4.70;;
23531;SDS011;11943;52.270;20.978;2023-03-13T15:36:06;8.10;;;3.53;;
23531;SDS011;11943;52.270;20.978;2023-03-13T15:38:32;12.57;;;4.13;;
23531;SDS011;11943;52.270;20.978;2023-03-13T15:40:58;8.45;;;3.30;;
23531;SDS011;11943;52.270;20.978;2023-03-13T15:43:23;15.55;;;4.45;;
23531;SDS011;11943;52.270;20.978;2023-03-13T15:45:50;13.63;;;3.97;;
23531;SDS011;11943;52.270;20.978;2023-03-13T15:50:49;13.13;;;4.68;;
23531;SDS011;11943;52.270;20.978;2023-03-13T15:55:45;12.93;;;3.67;;
23531;SDS011;11943;52.270;20.978;2023-03-13T15:58:13;12.57;;;4.55;;
23531;SDS011;11943;52.270;20.978;2023-03-13T16:00:39;13.60;;;4.35;;
23531;SDS011;11943;52.270;20.978;2023-03-13T16:03:08;16.80;;;4.80;;
23531;SDS011;11943;52.270;20.978;2023-03-13T16:05:39;10.32;;;4.57;;
23531;SDS011;11943;52.270;20.978;2023-03-13T16:08:04;15.38;;;5.45;;
23531;SDS011;11943;52.270;20.978;2023-03-13T16:10:30;12.10;;;4.30;;
23531;SDS011;11943;52.270;20.978;2023-03-13T16:12:56;11.95;;;4.43;;
23531;SDS011;11943;52.270;20.978;2023-03-13T16:15:22;10.43;;;3.78;;
23531;SDS011;11943;52.270;20.978;2023-03-13T16:17:48;13.70;;;4.68;;
23531;SDS011;11943;52.270;20.978;2023-03-13T16:20:14;12.20;;;4.63;;
23531;SDS011;11943;52.270;20.978;2023-03-13T16:22:42;9.88;;;4.30;;
23531;SDS011;11943;52.270;20.978;2023-03-13T16:25:08;13.80;;;4.53;;
23531;SDS011;11943;52.270;20.978;2023-03-13T16:27:34;13.57;;;5.00;;
23531;SDS011;11943;52.270;20.978;2023-03-13T16:30:00;14.38;;;4.95;;
23531;SDS011;11943;52.270;20.978;2023-03-13T16:32:26;13.32;;;4.80;;
23531;SDS011;11943;52.270;20.978;2023-03-13T16:34:52;14.55;;;5.00;;
23531;SDS011;11943;52.270;20.978;2023-03-13T16:37:19;12.77;;;4.95;;
23531;SDS011;11943;52.270;20.978;2023-03-13T16:39:45;15.57;;;5.37;;
23531;SDS011;11943;52.270;20.978;2023-03-13T16:42:12;12.38;;;5.05;;
23531;SDS011;11943;52.270;20.978;2023-03-13T16:44:38;10.90;;;4.70;;
23531;SDS011;11943;52.270;20.978;2023-03-13T16:47:12;13.02;;;4.75;;
23531;SDS011;11943;52.270;20.978;2023-03-13T16:49:51;12.73;;;4.50;;
23531;SDS011;11943;52.270;20.978;2023-03-13T16:52:17;17.02;;;4.97;;
23531;SDS011;11943;52.270;20.978;2023-03-13T16:54:43;11.82;;;4.78;;
23531;SDS011;11943;52.270;20.978;2023-03-13T16:57:13;16.80;;;5.10;;
23531;SDS011;11943;52.270;20.978;2023-03-13T16:59:41;11.45;;;5.55;;
23531;SDS011;11943;52.270;20.978;2023-03-13T17:02:14;13.82;;;5.65;;
23531;SDS011;11943;52.270;20.978;2023-03-13T17:04:40;14.32;;;5.38;;
23531;SDS011;11943;52.270;20.978;2023-03-13T17:07:12;12.60;;;5.05;;
23531;SDS011;11943;52.270;20.978;2023-03-13T17:09:41;13.98;;;5.07;;
23531;SDS011;11943;52.270;20.978;2023-03-13T17:12:07;15.18;;;5.82;;
23531;SDS011;11943;52.270;20.978;2023-03-13T17:14:33;13.73;;;5.38;;
23531;SDS011;11943;52.270;20.978;2023-03-13T17:16:58;11.32;;;5.30;;
23531;SDS011;11943;52.270;20.978;2023-03-13T17:19:24;15.95;;;6.20;;
23531;SDS011;11943;52.270;20.978;2023-03-13T17:21:50;12.98;;;5.47;;
23531;SDS011;11943;52.270;20.978;2023-03-13T17:24:15;16.30;;;5.65;;
23531;SDS011;11943;52.270;20.978;2023-03-13T17:26:41;10.95;;;5.63;;
23531;SDS011;11943;52.270;20.978;2023-03-13T17:29:07;14.20;;;5.38;;
23531;SDS011;11943;52.270;20.978;2023-03-13T17:31:38;14.38;;;5.97;;
23531;SDS011;11943;52.270;20.978;2023-03-13T17:34:05;14.70;;;5.63;;
23531;SDS011;11943;52.270;20.978;2023-03-13T17:36:31;12.35;;;5.78;;
23531;SDS011;11943;52.270;20.978;2023-03-13T17:39:01;16.27;;;5.57;;
23531;SDS011;11943;52.270;20.978;2023-03-13T17:41:30;10.90;;;5.47;;
23531;SDS011;11943;52.270;20.978;2023-03-13T17:46:37;12.38;;;5.82;;
23531;SDS011;11943;52.270;20.978;2023-03-13T17:51:37;11.60;;;5.35;;
23531;SDS011;11943;52.270;20.978;2023-03-13T17:54:05;13.60;;;5.68;;
23531;SDS011;11943;52.270;20.978;2023-03-13T17:56:32;12.45;;;5.53;;
23531;SDS011;11943;52.270;20.978;2023-03-13T17:59:03;11.07;;;4.80;;
23531;SDS011;11943;52.270;20.978;2023-03-13T18:01:34;10.20;;;5.30;;
23531;SDS011;11943;52.270;20.978;2023-03-13T18:04:00;8.43;;;5.05;;
23531;SDS011;11943;52.270;20.978;2023-03-13T18:06:27;14.40;;;5.90;;
23531;SDS011;11943;52.270;20.978;2023-03-13T18:09:04;12.23;;;5.50;;
23531;SDS011;11943;52.270;20.978;2023-03-13T18:11:33;10.98;;;5.72;;
23531;SDS011;11943;52.270;20.978;2023-03-13T18:14:00;10.15;;;5.40;;
23531;SDS011;11943;52.270;20.978;2023-03-13T18:16:36;10.75;;;5.30;;
23531;SDS011;11943;52.270;20.978;2023-03-13T18:19:05;16.23;;;6.60;;
23531;SDS011;11943;52.270;20.978;2023-03-13T18:21:32;10.82;;;5.43;;
23531;SDS011;11943;52.270;20.978;2023-03-13T18:23:58;10.75;;;4.90;;
23531;SDS011;11943;52.270;20.978;2023-03-13T18:26:28;10.80;;;5.45;;
23531;SDS011;11943;52.270;20.978;2023-03-13T18:28:56;10.30;;;5.32;;
23531;SDS011;11943;52.270;20.978;2023-03-13T18:31:28;10.95;;;5.53;;
23531;SDS011;11943;52.270;20.978;2023-03-13T18:33:56;13.88;;;5.18;;
23531;SDS011;11943;52.270;20.978;2023-03-13T18:36:22;10.23;;;5.35;;
23531;SDS011;11943;52.270;20.978;2023-03-13T18:38:48;9.15;;;5.30;;
23531;SDS011;11943;52.270;20.978;2023-03-13T18:41:14;10.82;;;4.93;;
23531;SDS011;11943;52.270;20.978;2023-03-13T18:43:43;9.00;;;5.13;;
23531;SDS011;11943;52.270;20.978;2023-03-13T18:46:28;11.98;;;5.72;;
23531;SDS011;11943;52.270;20.978;2023-03-13T18:48:58;13.07;;;5.93;;
23531;SDS011;11943;52.270;20.978;2023-03-13T18:51:25;8.77;;;5.07;;
23531;SDS011;11943;52.270;20.978;2023-03-13T18:53:52;11.93;;;5.60;;
23531;SDS011;11943;52.270;20.978;2023-03-13T18:56:28;10.93;;;5.53;;
23531;SDS011;11943;52.270;20.978;2023-03-13T18:58:55;12.73;;;5.80;;
23531;SDS011;11943;52.270;20.978;2023-03-13T19:01:23;11.15;;;5.80;;
23531;SDS011;11943;52.270;20.978;2023-03-13T19:03:50;12.35;;;5.88;;
23531;SDS011;11943;52.270;20.978;2023-03-13T19:06:19;10.50;;;5.13;;
23531;SDS011;11943;52.270;20.978;2023-03-13T19:08:56;11.05;;;5.50;;
23531;SDS011;11943;52.270;20.978;2023-03-13T19:11:24;10.55;;;5.80;;
23531;SDS011;11943;52.270;20.978;2023-03-13T19:13:52;11.45;;;5.25;;
23531;SDS011;11943;52.270;20.978;2023-03-13T19:16:19;7.53;;;5.43;;
23531;SDS011;11943;52.270;20.978;2023-03-13T19:18:47;8.82;;;5.40;;
23531;SDS011;11943;52.270;20.978;2023-03-13T19:21:32;9.90;;;5.88;;
23531;SDS011;11943;52.270;20.978;2023-03-13T19:23:57;8.77;;;5.40;;
23531;SDS011;11943;52.270;20.978;2023-03-13T19:26:30;9.90;;;5.20;;
23531;SDS011;11943;52.270;20.978;2023-03-13T19:28:59;15.57;;;5.60;;
23531;SDS011;11943;52.270;20.978;2023-03-13T19:31:25;11.15;;;5.68;;
23531;SDS011;11943;52.270;20.978;2023-03-13T19:33:51;11.05;;;5.43;;
23531;SDS011;11943;52.270;20.978;2023-03-13T19:36:18;9.13;;;5.55;;
23531;SDS011;11943;52.270;20.978;2023-03-13T19:38:46;10.18;;;5.68;;
23531;SDS011;11943;52.270;20.978;2023-03-13T19:41:12;11.05;;;5.80;;
23531;SDS011;11943;52.270;20.978;2023-03-13T19:43:39;16.20;;;5.97;;
23531;SDS011;11943;52.270;20.978;2023-03-13T19:48:47;12.63;;;6.18;;
23531;SDS011;11943;52.270;20.978;2023-03-13T19:51:13;10.25;;;5.78;;
23531;SDS011;11943;52.270;20.978;2023-03-13T19:53:38;10.02;;;5.95;;
23531;SDS011;11943;52.270;20.978;2023-03-13T19:56:26;10.70;;;5.57;;
23531;SDS011;11943;52.270;20.978;2023-03-13T19:58:56;8.88;;;5.47;;
23531;SDS011;11943;52.270;20.978;2023-03-13T20:01:23;11.63;;;5.68;;
23531;SDS011;11943;52.270;20.978;2023-03-13T20:03:49;10.38;;;5.53;;
23531;SDS011;11943;52.270;20.978;2023-03-13T20:06:16;11.15;;;6.00;;
23531;SDS011;11943;52.270;20.978;2023-03-13T20:08:43;8.68;;;5.03;;
23531;SDS011;11943;52.270;20.978;2023-03-13T20:11:10;8.82;;;5.45;;
23531;SDS011;11943;52.270;20.978;2023-03-13T20:13:36;12.57;;;5.13;;
23531;SDS011;11943;52.270;20.978;2023-03-13T20:16:02;12.70;;;6.22;;
23531;SDS011;11943;52.270;20.978;2023-03-13T20:18:28;9.65;;;5.65;;
23531;SDS011;11943;52.270;20.978;2023-03-13T20:20:54;8.23;;;5.28;;
23531;SDS011;11943;52.270;20.978;2023-03-13T20:23:19;9.00;;;6.03;;
23531;SDS011;11943;52.270;20.978;2023-03-13T20:25:45;8.93;;;5.65;;
23531;SDS011;11943;52.270;20.978;2023-03-13T20:28:10;10.07;;;5.82;;
23531;SDS011;11943;52.270;20.978;2023-03-13T20:30:40;8.77;;;5.45;;
23531;SDS011;11943;52.270;20.978;2023-03-13T20:33:07;13.52;;;5.57;;
23531;SDS011;11943;52.270;20.978;2023-03-13T20:35:34;9.82;;;5.65;;
23531;SDS011;11943;52.270;20.978;2023-03-13T20:38:00;11.20;;;5.82;;
23531;SDS011;11943;52.270;20.978;2023-03-13T20:40:26;9.25;;;5.72;;
23531;SDS011;11943;52.270;20.978;2023-03-13T20:42:52;9.45;;;5.43;;
23531;SDS011;11943;52.270;20.978;2023-03-13T20:45:18;12.95;;;6.00;;
23531;SDS011;11943;52.270;20.978;2023-03-13T20:47:43;11.52;;;6.07;;
23531;SDS011;11943;52.270;20.978;2023-03-13T20:50:09;15.13;;;5.85;;
23531;SDS011;11943;52.270;20.978;2023-03-13T20:52:35;11.65;;;5.72;;
23531;SDS011;11943;52.270;20.978;2023-03-13T20:55:01;13.52;;;5.72;;
23531;SDS011;11943;52.270;20.978;2023-03-13T20:57:26;10.25;;;5.68;;
23531;SDS011;11943;52.270;20.978;2023-03-13T20:59:52;10.45;;;5.70;;
23531;SDS011;11943;52.270;20.978;2023-03-13T21:02:17;11.20;;;7.28;;
23531;SDS011;11943;52.270;20.978;2023-03-13T21:04:43;9.57;;;5.75;;
23531;SDS011;11943;52.270;20.978;2023-03-13T21:07:09;8.55;;;5.40;;
23531;SDS011;11943;52.270;20.978;2023-03-13T21:09:35;14.50;;;5.05;;
23531;SDS011;11943;52.270;20.978;2023-03-13T21:12:00;10.68;;;5.88;;
23531;SDS011;11943;52.270;20.978;2023-03-13T21:14:26;10.00;;;5.80;;
23531;SDS011;11943;52.270;20.978;2023-03-13T21:16:52;9.00;;;5.78;;
23531;SDS011;11943;52.270;20.978;2023-03-13T21:19:18;11.18;;;6.28;;
23531;SDS011;11943;52.270;20.978;2023-03-13T21:21:43;12.68;;;5.15;;
23531;SDS011;11943;52.270;20.978;2023-03-13T21:24:09;16.38;;;6.05;;
23531;SDS011;11943;52.270;20.978;2023-03-13T21:26:35;11.02;;;5.95;;
23531;SDS011;11943;52.270;20.978;2023-03-13T21:29:01;9.38;;;5.43;;
23531;SDS011;11943;52.270;20.978;2023-03-13T21:31:27;9.75;;;6.00;;
23531;SDS011;11943;52.270;20.978;2023-03-13T21:33:53;8.85;;;5.35;;
23531;SDS011;11943;52.270;20.978;2023-03-13T21:36:19;12.40;;;5.57;;
23531;SDS011;11943;52.270;20.978;2023-03-13T21:38:47;11.07;;;6.03;;
23531;SDS011;11943;52.270;20.978;2023-03-13T21:41:16;11.30;;;5.68;;
23531;SDS011;11943;52.270;20.978;2023-03-13T21:43:44;11.45;;;5.72;;
23531;SDS011;11943;52.270;20.978;2023-03-13T21:46:10;9.50;;;5.43;;
23531;SDS011;11943;52.270;20.978;2023-03-13T21:48:41;11.25;;;5.50;;
23531;SDS011;11943;52.270;20.978;2023-03-13T21:51:08;10.98;;;5.38;;
23531;SDS011;11943;52.270;20.978;2023-03-13T21:53:34;11.25;;;5.57;;
23531;SDS011;11943;52.270;20.978;2023-03-13T21:56:00;11.43;;;6.18;;
23531;SDS011;11943;52.270;20.978;2023-03-13T21:58:26;11.48;;;6.32;;
23531;SDS011;11943;52.270;20.978;2023-03-13T22:00:55;11.07;;;5.88;;
23531;SDS011;11943;52.270;20.978;2023-03-13T22:03:22;11.23;;;5.35;;
23531;SDS011;11943;52.270;20.978;2023-03-13T22:05:50;11.18;;;6.38;;
23531;SDS011;11943;52.270;20.978;2023-03-13T22:08:16;10.60;;;5.63;;
23531;SDS011;11943;52.270;20.978;2023-03-13T22:10:48;11.60;;;6.20;;
23531;SDS011;11943;52.270;20.978;2023-03-13T22:13:16;10.77;;;6.30;;
23531;SDS011;11943;52.270;20.978;2023-03-13T22:15:42;10.57;;;6.63;;
23531;SDS011;11943;52.270;20.978;2023-03-13T22:18:10;11.25;;;6.40;;
23531;SDS011;11943;52.270;20.978;2023-03-13T22:20:39;13.65;;;6.28;;
23531;SDS011;11943;52.270;20.978;2023-03-13T22:23:05;13.57;;;6.72;;
23531;SDS011;11943;52.270;20.978;2023-03-13T22:25:31;12.40;;;6.43;;
23531;SDS011;11943;52.270;20.978;2023-03-13T22:27:57;12.20;;;6.55;;
23531;SDS011;11943;52.270;20.978;2023-03-13T22:30:23;11.13;;;6.57;;
23531;SDS011;11943;52.270;20.978;2023-03-13T22:32:48;16.30;;;6.88;;
23531;SDS011;11943;52.270;20.978;2023-03-13T22:35:14;15.35;;;7.32;;
23531;SDS011;11943;52.270;20.978;2023-03-13T22:37:40;16.67;;;6.80;;
23531;SDS011;11943;52.270;20.978;2023-03-13T22:40:06;12.02;;;6.85;;
23531;SDS011;11943;52.270;20.978;2023-03-13T22:42:33;12.32;;;6.88;;
23531;SDS011;11943;52.270;20.978;2023-03-13T22:44:59;13.17;;;6.67;;
23531;SDS011;11943;52.270;20.978;2023-03-13T22:47:24;17.80;;;7.03;;
23531;SDS011;11943;52.270;20.978;2023-03-13T22:49:50;12.82;;;6.93;;
23531;SDS011;11943;52.270;20.978;2023-03-13T22:52:17;14.90;;;6.78;;
23531;SDS011;11943;52.270;20.978;2023-03-13T22:54:43;10.25;;;6.50;;
23531;SDS011;11943;52.270;20.978;2023-03-13T22:57:10;13.27;;;6.50;;
23531;SDS011;11943;52.270;20.978;2023-03-13T22:59:36;14.18;;;6.60;;
23531;SDS011;11943;52.270;20.978;2023-03-13T23:02:02;14.23;;;6.22;;
23531;SDS011;11943;52.270;20.978;2023-03-13T23:04:28;22.00;;;7.10;;
23531;SDS011;11943;52.270;20.978;2023-03-13T23:06:53;9.40;;;5.97;;
23531;SDS011;11943;52.270;20.978;2023-03-13T23:09:19;13.50;;;6.47;;
23531;SDS011;11943;52.270;20.978;2023-03-13T23:11:45;11.25;;;6.70;;
23531;SDS011;11943;52.270;20.978;2023-03-13T23:14:10;10.73;;;6.30;;
23531;SDS011;11943;52.270;20.978;2023-03-13T23:16:36;9.18;;;6.53;;
23531;SDS011;11943;52.270;20.978;2023-03-13T23:19:01;11.70;;;6.43;;
23531;SDS011;11943;52.270;20.978;2023-03-13T23:21:27;12.38;;;6.50;;
23531;SDS011;11943;52.270;20.978;2023-03-13T23:23:53;11.68;;;6.20;;
23531;SDS011;11943;52.270;20.978;2023-03-13T23:26:19;12.20;;;6.20;;
23531;SDS011;11943;52.270;20.978;2023-03-13T23:28:45;10.07;;;5.78;;
23531;SDS011;11943;52.270;20.978;2023-03-13T23:31:11;12.13;;;6.30;;